sensor_id;sensor_type;location;lat;lon;timestamp;pressure;altitude;pressure_sealevel;temperature;humidity
46846;BME280;33947;46.804;134.252;2022-08-01T00:00:43;100218.38;;;31.11;66.54
46846;BME280;33947;46.804;134.252;2022-08-01T00:03:48;100215.16;;;31.84;62.91
46846;BME280;33947;46.804;134.252;2022-08-01T00:06:52;100206.53;;;32.76;61.65
46846;BME280;33947;46.804;134.252;2022-08-01T00:09:56;100200.03;;;32.99;57.35
46846;BME280;33947;46.804;134.252;2022-08-01T00:13:00;100216.09;;;32.58;58.49
46846;BME280;33947;46.804;134.252;2022-08-01T00:16:04;100219.78;;;31.84;60.84
46846;BME280;33947;46.804;134.252;2022-08-01T00:19:08;100216.59;;;31.27;61.32
46846;BME280;33947;46.804;134.252;2022-08-01T00:22:12;100219.31;;;30.80;62.99
46846;BME280;33947;46.804;134.252;2022-08-01T00:25:16;100215.19;;;30.53;64.39
46846;BME280;33947;46.804;134.252;2022-08-01T00:28:20;100212.03;;;30.32;63.97
46846;BME280;33947;46.804;134.252;2022-08-01T00:31:24;100214.22;;;29.97;65.91
46846;BME280;33947;46.804;134.252;2022-08-01T00:34:28;100211.84;;;29.94;65.57
46846;BME280;33947;46.804;134.252;2022-08-01T00:37:32;100212.63;;;29.30;67.85
46846;BME280;33947;46.804;134.252;2022-08-01T00:40:36;100217.53;;;28.68;69.79
46846;BME280;33947;46.804;134.252;2022-08-01T00:43:40;100223.09;;;28.34;71.37
46846;BME280;33947;46.804;134.252;2022-08-01T00:46:45;100220.56;;;28.06;72.16
46846;BME280;33947;46.804;134.252;2022-08-01T00:49:48;100212.81;;;27.93;73.00
46846;BME280;33947;46.804;134.252;2022-08-01T00:52:58;100208.50;;;27.82;73.05
46846;BME280;33947;46.804;134.252;2022-08-01T00:56:03;100208.28;;;27.67;74.33
46846;BME280;33947;46.804;134.252;2022-08-01T00:59:08;100197.34;;;27.67;74.49
46846;BME280;33947;46.804;134.252;2022-08-01T01:02:12;100190.47;;;27.63;74.91
46846;BME280;33947;46.804;134.252;2022-08-01T01:05:17;100196.84;;;27.71;74.85
46846;BME280;33947;46.804;134.252;2022-08-01T01:08:27;100190.53;;;28.06;73.55
46846;BME280;33947;46.804;134.252;2022-08-01T01:11:39;100183.84;;;28.51;70.89
46846;BME280;33947;46.804;134.252;2022-08-01T01:18:00;100192.78;;;28.62;70.58
46846;BME280;33947;46.804;134.252;2022-08-01T01:27:45;100185.25;;;28.64;71.80
46846;BME280;33947;46.804;134.252;2022-08-01T01:30:53;100179.81;;;28.64;71.05
46846;BME280;33947;46.804;134.252;2022-08-01T01:33:59;100166.97;;;28.72;70.87
46846;BME280;33947;46.804;134.252;2022-08-01T01:37:04;100180.44;;;28.49;72.27
46846;BME280;33947;46.804;134.252;2022-08-01T01:40:10;100173.06;;;28.33;72.46
46846;BME280;33947;46.804;134.252;2022-08-01T01:43:15;100164.16;;;28.23;73.24
46846;BME280;33947;46.804;134.252;2022-08-01T01:46:20;100159.25;;;28.35;73.43
46846;BME280;33947;46.804;134.252;2022-08-01T01:49:27;100157.22;;;28.53;72.62
46846;BME280;33947;46.804;134.252;2022-08-01T01:52:32;100163.44;;;28.80;72.07
46846;BME280;33947;46.804;134.252;2022-08-01T01:55:37;100161.34;;;29.24;71.73
46846;BME280;33947;46.804;134.252;2022-08-01T01:58:52;100159.06;;;30.17;67.37
46846;BME280;33947;46.804;134.252;2022-08-01T02:01:58;100150.13;;;30.46;66.42
46846;BME280;33947;46.804;134.252;2022-08-01T02:05:11;100148.56;;;31.37;63.62
46846;BME280;33947;46.804;134.252;2022-08-01T02:08:15;100151.69;;;31.49;62.82
46846;BME280;33947;46.804;134.252;2022-08-01T02:11:21;100148.84;;;31.57;62.09
46846;BME280;33947;46.804;134.252;2022-08-01T02:14:25;100139.78;;;32.24;61.14
46846;BME280;33947;46.804;134.252;2022-08-01T02:17:32;100143.09;;;31.82;61.44
46846;BME280;33947;46.804;134.252;2022-08-01T02:20:41;100140.69;;;30.49;64.32
46846;BME280;33947;46.804;134.252;2022-08-01T02:23:45;100124.72;;;29.98;64.96
46846;BME280;33947;46.804;134.252;2022-08-01T02:26:52;100134.91;;;29.81;67.87
46846;BME280;33947;46.804;134.252;2022-08-01T02:30:01;100124.31;;;29.69;68.05
46846;BME280;33947;46.804;134.252;2022-08-01T02:33:18;100120.25;;;29.57;68.19
46846;BME280;33947;46.804;134.252;2022-08-01T02:36:25;100122.91;;;29.25;68.83
46846;BME280;33947;46.804;134.252;2022-08-01T02:39:35;100115.59;;;29.01;70.37
46846;BME280;33947;46.804;134.252;2022-08-01T02:42:41;100115.09;;;28.81;71.53
46846;BME280;33947;46.804;134.252;2022-08-01T02:45:47;100121.19;;;28.66;72.56
46846;BME280;33947;46.804;134.252;2022-08-01T02:48:53;100122.94;;;28.92;72.43
46846;BME280;33947;46.804;134.252;2022-08-01T02:52:01;100109.84;;;29.60;71.93
46846;BME280;33947;46.804;134.252;2022-08-01T02:55:08;100106.28;;;30.23;69.51
46846;BME280;33947;46.804;134.252;2022-08-01T02:58:14;100116.25;;;29.76;70.90
46846;BME280;33947;46.804;134.252;2022-08-01T03:01:20;100107.94;;;29.61;72.30
46846;BME280;33947;46.804;134.252;2022-08-01T03:04:28;100115.66;;;29.57;71.72
46846;BME280;33947;46.804;134.252;2022-08-01T03:07:32;100104.53;;;29.90;70.62
46846;BME280;33947;46.804;134.252;2022-08-01T03:10:42;100103.75;;;29.73;71.34
46846;BME280;33947;46.804;134.252;2022-08-01T03:13:48;100095.31;;;29.35;72.93
46846;BME280;33947;46.804;134.252;2022-08-01T03:16:52;100095.50;;;29.42;72.41
46846;BME280;33947;46.804;134.252;2022-08-01T03:19:57;100082.91;;;29.16;73.61
46846;BME280;33947;46.804;134.252;2022-08-01T03:23:07;100076.31;;;29.50;72.98
46846;BME280;33947;46.804;134.252;2022-08-01T03:26:12;100069.56;;;29.69;71.78
46846;BME280;33947;46.804;134.252;2022-08-01T03:29:17;100059.44;;;29.78;71.32
46846;BME280;33947;46.804;134.252;2022-08-01T03:32:22;100065.00;;;29.93;72.00
46846;BME280;33947;46.804;134.252;2022-08-01T03:35:29;100070.66;;;29.92;71.46
46846;BME280;33947;46.804;134.252;2022-08-01T03:38:34;100077.56;;;29.79;70.66
46846;BME280;33947;46.804;134.252;2022-08-01T03:41:41;100080.56;;;29.61;71.36
46846;BME280;33947;46.804;134.252;2022-08-01T03:44:48;100067.09;;;29.51;72.05
46846;BME280;33947;46.804;134.252;2022-08-01T03:48:00;100057.16;;;29.58;73.52
46846;BME280;33947;46.804;134.252;2022-08-01T03:51:05;100057.13;;;29.67;72.99
46846;BME280;33947;46.804;134.252;2022-08-01T03:54:10;100039.72;;;29.59;73.38
46846;BME280;33947;46.804;134.252;2022-08-01T03:57:14;100036.78;;;29.61;72.75
46846;BME280;33947;46.804;134.252;2022-08-01T04:00:38;100045.44;;;29.41;74.03
46846;BME280;33947;46.804;134.252;2022-08-01T04:03:43;100037.88;;;29.35;73.69
46846;BME280;33947;46.804;134.252;2022-08-01T04:06:48;100026.44;;;29.31;75.58
46846;BME280;33947;46.804;134.252;2022-08-01T04:09:56;100030.03;;;29.32;75.87
46846;BME280;33947;46.804;134.252;2022-08-01T04:13:01;100030.03;;;29.32;74.93
46846;BME280;33947;46.804;134.252;2022-08-01T04:16:05;100038.97;;;29.17;75.39
46846;BME280;33947;46.804;134.252;2022-08-01T04:19:10;100039.22;;;28.91;75.79
46846;BME280;33947;46.804;134.252;2022-08-01T04:22:14;100041.78;;;28.68;77.35
46846;BME280;33947;46.804;134.252;2022-08-01T04:25:25;100026.44;;;28.25;79.38
46846;BME280;33947;46.804;134.252;2022-08-01T04:28:34;99997.03;;;27.94;81.44
46846;BME280;33947;46.804;134.252;2022-08-01T04:31:40;99998.00;;;27.77;81.72
46846;BME280;33947;46.804;134.252;2022-08-01T04:34:45;100001.06;;;27.65;81.59
46846;BME280;33947;46.804;134.252;2022-08-01T04:37:50;100004.09;;;27.54;82.28
46846;BME280;33947;46.804;134.252;2022-08-01T04:40:55;100009.44;;;27.37;83.17
46846;BME280;33947;46.804;134.252;2022-08-01T04:44:01;100022.16;;;27.20;84.01
46846;BME280;33947;46.804;134.252;2022-08-01T04:47:06;100024.31;;;27.08;81.82
46846;BME280;33947;46.804;134.252;2022-08-01T04:50:11;100017.44;;;26.51;82.22
46846;BME280;33947;46.804;134.252;2022-08-01T04:53:16;100024.28;;;26.01;84.53
46846;BME280;33947;46.804;134.252;2022-08-01T04:56:20;100024.72;;;25.60;88.47
46846;BME280;33947;46.804;134.252;2022-08-01T04:59:28;100012.88;;;25.51;91.52
46846;BME280;33947;46.804;134.252;2022-08-01T05:02:44;100008.28;;;25.52;91.40
46846;BME280;33947;46.804;134.252;2022-08-01T05:05:49;100016.75;;;25.49;93.02
46846;BME280;33947;46.804;134.252;2022-08-01T05:08:53;100014.91;;;25.49;95.35
46846;BME280;33947;46.804;134.252;2022-08-01T05:11:58;100003.84;;;25.51;95.92
46846;BME280;33947;46.804;134.252;2022-08-01T05:15:02;99984.78;;;25.61;92.62
46846;BME280;33947;46.804;134.252;2022-08-01T05:18:07;99971.50;;;25.76;89.39
46846;BME280;33947;46.804;134.252;2022-08-01T05:21:11;99963.56;;;26.00;88.84
46846;BME280;33947;46.804;134.252;2022-08-01T05:24:15;99959.75;;;26.29;88.82
46846;BME280;33947;46.804;134.252;2022-08-01T05:27:19;99963.84;;;26.52;86.69
46846;BME280;33947;46.804;134.252;2022-08-01T05:30:23;99973.59;;;26.63;89.13
46846;BME280;33947;46.804;134.252;2022-08-01T05:33:27;99976.91;;;26.48;89.04
46846;BME280;33947;46.804;134.252;2022-08-01T05:36:31;99983.63;;;26.36;89.44
46846;BME280;33947;46.804;134.252;2022-08-01T05:39:35;99991.56;;;26.29;89.21
46846;BME280;33947;46.804;134.252;2022-08-01T05:42:40;99999.28;;;26.15;88.45
46846;BME280;33947;46.804;134.252;2022-08-01T05:45:43;99996.75;;;25.86;87.70
46846;BME280;33947;46.804;134.252;2022-08-01T05:48:49;100011.03;;;25.70;88.20
46846;BME280;33947;46.804;134.252;2022-08-01T05:51:55;99998.22;;;25.62;89.66
46846;BME280;33947;46.804;134.252;2022-08-01T05:54:59;99989.28;;;25.70;89.15
46846;BME280;33947;46.804;134.252;2022-08-01T05:58:03;99994.72;;;25.70;88.18
46846;BME280;33947;46.804;134.252;2022-08-01T06:01:07;99992.47;;;25.65;88.80
46846;BME280;33947;46.804;134.252;2022-08-01T06:04:12;99982.81;;;25.53;90.28
46846;BME280;33947;46.804;134.252;2022-08-01T06:07:16;99983.38;;;25.56;87.58
46846;BME280;33947;46.804;134.252;2022-08-01T06:10:20;99969.06;;;25.54;87.25
46846;BME280;33947;46.804;134.252;2022-08-01T06:13:24;99980.25;;;25.51;87.71
46846;BME280;33947;46.804;134.252;2022-08-01T06:16:28;99978.38;;;25.52;87.07
46846;BME280;33947;46.804;134.252;2022-08-01T06:19:32;99978.44;;;25.42;87.37
46846;BME280;33947;46.804;134.252;2022-08-01T06:22:37;99973.28;;;25.39;87.59
46846;BME280;33947;46.804;134.252;2022-08-01T06:25:42;99970.31;;;25.32;87.77
46846;BME280;33947;46.804;134.252;2022-08-01T06:28:46;99978.78;;;25.29;88.44
46846;BME280;33947;46.804;134.252;2022-08-01T06:31:50;99971.22;;;25.23;88.12
46846;BME280;33947;46.804;134.252;2022-08-01T06:34:54;99965.53;;;25.16;89.49
46846;BME280;33947;46.804;134.252;2022-08-01T06:37:59;99962.81;;;25.16;88.85
46846;BME280;33947;46.804;134.252;2022-08-01T06:41:03;99969.25;;;25.15;88.54
46846;BME280;33947;46.804;134.252;2022-08-01T06:44:07;99970.00;;;25.07;89.04
46846;BME280;33947;46.804;134.252;2022-08-01T06:47:10;99985.19;;;25.00;89.31
46846;BME280;33947;46.804;134.252;2022-08-01T06:50:14;100012.13;;;24.74;92.38
46846;BME280;33947;46.804;134.252;2022-08-01T06:53:18;100026.13;;;24.69;93.72
46846;BME280;33947;46.804;134.252;2022-08-01T06:56:26;100018.34;;;24.36;94.96
46846;BME280;33947;46.804;134.252;2022-08-01T06:59:29;99985.91;;;24.35;95.77
46846;BME280;33947;46.804;134.252;2022-08-01T07:02:34;99958.91;;;24.33;96.64
46846;BME280;33947;46.804;134.252;2022-08-01T07:05:39;99963.47;;;24.33;97.36
46846;BME280;33947;46.804;134.252;2022-08-01T07:08:43;99988.31;;;24.38;95.55
46846;BME280;33947;46.804;134.252;2022-08-01T07:11:47;99986.59;;;24.37;95.84
46846;BME280;33947;46.804;134.252;2022-08-01T07:14:51;99971.91;;;24.39;94.46
46846;BME280;33947;46.804;134.252;2022-08-01T07:17:55;99946.88;;;24.46;95.43
46846;BME280;33947;46.804;134.252;2022-08-01T07:21:00;99929.00;;;24.43;96.81
46846;BME280;33947;46.804;134.252;2022-08-01T07:24:10;99937.44;;;24.40;98.13
46846;BME280;33947;46.804;134.252;2022-08-01T07:27:16;99927.31;;;24.42;96.93
46846;BME280;33947;46.804;134.252;2022-08-01T07:30:25;99929.88;;;24.43;96.61
46846;BME280;33947;46.804;134.252;2022-08-01T07:33:29;99923.03;;;24.49;95.74
46846;BME280;33947;46.804;134.252;2022-08-01T07:36:51;99930.47;;;24.47;95.12
46846;BME280;33947;46.804;134.252;2022-08-01T07:39:55;99918.31;;;24.41;94.59
46846;BME280;33947;46.804;134.252;2022-08-01T07:42:59;99921.75;;;24.43;92.63
46846;BME280;33947;46.804;134.252;2022-08-01T07:46:04;99927.63;;;24.29;93.21
46846;BME280;33947;46.804;134.252;2022-08-01T07:49:08;99930.78;;;24.14;94.02
46846;BME280;33947;46.804;134.252;2022-08-01T07:52:12;99924.41;;;24.06;95.89
46846;BME280;33947;46.804;134.252;2022-08-01T07:55:16;99918.97;;;24.06;94.27
46846;BME280;33947;46.804;134.252;2022-08-01T07:58:20;99918.97;;;24.06;93.94
46846;BME280;33947;46.804;134.252;2022-08-01T08:01:25;99912.53;;;24.07;94.29
46846;BME280;33947;46.804;134.252;2022-08-01T08:04:30;99906.66;;;24.11;94.37
46846;BME280;33947;46.804;134.252;2022-08-01T08:07:34;99901.34;;;24.20;93.68
46846;BME280;33947;46.804;134.252;2022-08-01T08:10:37;99909.38;;;24.21;95.18
46846;BME280;33947;46.804;134.252;2022-08-01T08:13:43;99920.94;;;24.23;96.65
46846;BME280;33947;46.804;134.252;2022-08-01T08:16:46;99926.34;;;24.23;97.08
46846;BME280;33947;46.804;134.252;2022-08-01T08:19:51;99925.47;;;24.23;98.92
46846;BME280;33947;46.804;134.252;2022-08-01T08:22:55;99923.06;;;24.30;98.20
46846;BME280;33947;46.804;134.252;2022-08-01T08:26:01;99907.34;;;24.33;97.83
46846;BME280;33947;46.804;134.252;2022-08-01T08:29:05;99907.03;;;24.36;94.98
46846;BME280;33947;46.804;134.252;2022-08-01T08:32:10;99916.59;;;24.40;95.93
46846;BME280;33947;46.804;134.252;2022-08-01T08:35:14;99911.75;;;24.44;97.22
46846;BME280;33947;46.804;134.252;2022-08-01T08:38:38;99898.19;;;24.44;95.29
46846;BME280;33947;46.804;134.252;2022-08-01T08:41:42;99894.59;;;24.43;96.82
46846;BME280;33947;46.804;134.252;2022-08-01T08:44:51;99902.31;;;24.48;95.32
46846;BME280;33947;46.804;134.252;2022-08-01T08:47:57;99913.88;;;24.50;96.18
46846;BME280;33947;46.804;134.252;2022-08-01T08:51:02;99900.25;;;24.60;95.80
46846;BME280;33947;46.804;134.252;2022-08-01T08:54:07;99905.66;;;24.60;97.56
46846;BME280;33947;46.804;134.252;2022-08-01T08:57:10;99911.69;;;24.54;99.26
46846;BME280;33947;46.804;134.252;2022-08-01T09:00:17;99919.00;;;24.53;100.00
46846;BME280;33947;46.804;134.252;2022-08-01T09:03:20;99928.16;;;24.52;100.00
46846;BME280;33947;46.804;134.252;2022-08-01T09:06:24;99933.28;;;24.55;100.00
46846;BME280;33947;46.804;134.252;2022-08-01T09:09:28;99945.56;;;24.60;99.11
46846;BME280;33947;46.804;134.252;2022-08-01T09:12:34;99941.97;;;24.59;97.91
46846;BME280;33947;46.804;134.252;2022-08-01T09:15:42;99938.13;;;24.62;98.34
46846;BME280;33947;46.804;134.252;2022-08-01T09:18:47;99928.25;;;24.61;97.88
46846;BME280;33947;46.804;134.252;2022-08-01T09:21:56;99927.56;;;24.59;97.83
46846;BME280;33947;46.804;134.252;2022-08-01T09:25:04;99923.13;;;24.57;98.07
46846;BME280;33947;46.804;134.252;2022-08-01T09:28:09;99923.25;;;24.56;98.52
46846;BME280;33947;46.804;134.252;2022-08-01T09:31:14;99907.97;;;24.55;97.71
46846;BME280;33947;46.804;134.252;2022-08-01T09:34:26;99917.44;;;24.51;98.00
46846;BME280;33947;46.804;134.252;2022-08-01T09:37:31;99926.75;;;24.48;98.67
46846;BME280;33947;46.804;134.252;2022-08-01T09:44:10;99930.97;;;24.61;97.86
46846;BME280;33947;46.804;134.252;2022-08-01T09:47:14;99925.97;;;24.66;97.63
46846;BME280;33947;46.804;134.252;2022-08-01T09:50:25;99937.94;;;24.73;96.74
46846;BME280;33947;46.804;134.252;2022-08-01T09:53:43;99951.41;;;24.75;98.10
46846;BME280;33947;46.804;134.252;2022-08-01T09:56:54;99941.66;;;24.72;98.38
46846;BME280;33947;46.804;134.252;2022-08-01T10:00:16;99932.09;;;24.68;98.33
46846;BME280;33947;46.804;134.252;2022-08-01T10:03:41;99935.09;;;24.65;98.99
46846;BME280;33947;46.804;134.252;2022-08-01T10:06:46;99929.09;;;24.61;98.96
46846;BME280;33947;46.804;134.252;2022-08-01T10:09:52;99930.97;;;24.61;99.26
46846;BME280;33947;46.804;134.252;2022-08-01T10:12:58;99934.84;;;24.58;99.29
46846;BME280;33947;46.804;134.252;2022-08-01T10:16:02;99940.13;;;24.60;98.93
46846;BME280;33947;46.804;134.252;2022-08-01T10:19:07;99929.41;;;24.58;99.68
46846;BME280;33947;46.804;134.252;2022-08-01T10:22:17;99932.28;;;24.56;99.14
46846;BME280;33947;46.804;134.252;2022-08-01T10:25:22;99935.28;;;24.53;98.34
46846;BME280;33947;46.804;134.252;2022-08-01T10:28:45;99934.59;;;24.51;99.02
46846;BME280;33947;46.804;134.252;2022-08-01T10:31:52;99934.19;;;24.46;98.64
46846;BME280;33947;46.804;134.252;2022-08-01T10:35:02;99933.72;;;24.41;97.72
46846;BME280;33947;46.804;134.252;2022-08-01T10:38:08;99928.59;;;24.38;98.43
46846;BME280;33947;46.804;134.252;2022-08-01T10:41:15;99924.63;;;24.32;98.78
46846;BME280;33947;46.804;134.252;2022-08-01T10:44:23;99942.06;;;24.30;99.21
46846;BME280;33947;46.804;134.252;2022-08-01T10:47:29;99939.78;;;24.25;100.00
46846;BME280;33947;46.804;134.252;2022-08-01T10:50:52;99931.66;;;24.25;99.54
46846;BME280;33947;46.804;134.252;2022-08-01T10:53:57;99938.34;;;24.21;99.30
46846;BME280;33947;46.804;134.252;2022-08-01T10:57:11;99942.50;;;24.15;99.42
46846;BME280;33947;46.804;134.252;2022-08-01T11:00:20;99951.19;;;24.19;99.55
46846;BME280;33947;46.804;134.252;2022-08-01T11:03:36;99950.38;;;24.18;98.96
46846;BME280;33947;46.804;134.252;2022-08-01T11:13:43;99958.38;;;24.10;100.00
46846;BME280;33947;46.804;134.252;2022-08-01T11:16:44;99962.38;;;24.06;100.00
46846;BME280;33947;46.804;134.252;2022-08-01T11:20:03;99956.22;;;24.04;100.00
46846;BME280;33947;46.804;134.252;2022-08-01T11:26:16;99940.66;;;24.06;100.00
46846;BME280;33947;46.804;134.252;2022-08-01T11:29:31;99946.34;;;24.03;100.00
46846;BME280;33947;46.804;134.252;2022-08-01T11:39:29;99954.31;;;23.84;100.00
46846;BME280;33947;46.804;134.252;2022-08-01T11:42:40;99963.91;;;23.79;100.00
46846;BME280;33947;46.804;134.252;2022-08-01T11:45:51;99958.31;;;23.80;100.00
46846;BME280;33947;46.804;134.252;2022-08-01T11:52:24;99954.78;;;23.90;100.00
46846;BME280;33947;46.804;134.252;2022-08-01T11:55:29;99957.31;;;23.91;100.00
46846;BME280;33947;46.804;134.252;2022-08-01T11:58:33;99945.19;;;23.95;100.00
46846;BME280;33947;46.804;134.252;2022-08-01T12:01:38;99961.75;;;23.92;100.00
46846;BME280;33947;46.804;134.252;2022-08-01T12:05:04;99959.75;;;23.84;100.00
46846;BME280;33947;46.804;134.252;2022-08-01T12:08:09;99962.47;;;23.94;100.00
46846;BME280;33947;46.804;134.252;2022-08-01T12:11:13;99955.31;;;23.93;100.00
46846;BME280;33947;46.804;134.252;2022-08-01T12:14:18;99968.63;;;23.87;100.00
46846;BME280;33947;46.804;134.252;2022-08-01T12:17:37;99967.75;;;23.86;100.00
46846;BME280;33947;46.804;134.252;2022-08-01T12:20:45;99975.47;;;23.81;100.00
46846;BME280;33947;46.804;134.252;2022-08-01T12:24:02;99976.47;;;23.80;100.00
46846;BME280;33947;46.804;134.252;2022-08-01T12:27:07;99979.47;;;23.77;100.00
46846;BME280;33947;46.804;134.252;2022-08-01T12:30:13;99970.59;;;23.75;100.00
46846;BME280;33947;46.804;134.252;2022-08-01T12:33:19;99969.72;;;23.64;100.00
46846;BME280;33947;46.804;134.252;2022-08-01T12:36:28;99963.75;;;23.61;100.00
46846;BME280;33947;46.804;134.252;2022-08-01T12:39:32;99964.56;;;23.61;100.00
46846;BME280;33947;46.804;134.252;2022-08-01T12:42:37;99957.16;;;23.53;100.00
46846;BME280;33947;46.804;134.252;2022-08-01T12:45:43;99956.44;;;23.51;100.00
46846;BME280;33947;46.804;134.252;2022-08-01T12:48:58;99964.31;;;23.54;100.00
46846;BME280;33947;46.804;134.252;2022-08-01T12:52:03;99958.28;;;23.51;100.00
46846;BME280;33947;46.804;134.252;2022-08-01T12:55:15;99961.28;;;23.48;100.00
46846;BME280;33947;46.804;134.252;2022-08-01T12:58:21;99959.97;;;23.42;100.00
46846;BME280;33947;46.804;134.252;2022-08-01T13:01:26;99958.53;;;23.38;100.00
46846;BME280;33947;46.804;134.252;2022-08-01T13:04:30;99955.56;;;23.31;100.00
46846;BME280;33947;46.804;134.252;2022-08-01T13:07:38;99947.56;;;23.30;100.00
46846;BME280;33947;46.804;134.252;2022-08-01T13:10:48;99948.66;;;23.27;100.00
46846;BME280;33947;46.804;134.252;2022-08-01T13:13:52;99964.22;;;23.25;100.00
46846;BME280;33947;46.804;134.252;2022-08-01T13:16:57;99959.91;;;23.22;100.00
46846;BME280;33947;46.804;134.252;2022-08-01T13:20:01;99960.47;;;23.16;100.00
46846;BME280;33947;46.804;134.252;2022-08-01T13:23:14;99959.44;;;23.07;100.00
46846;BME280;33947;46.804;134.252;2022-08-01T13:26:49;99964.41;;;23.02;100.00
46846;BME280;33947;46.804;134.252;2022-08-01T13:29:53;99958.72;;;23.05;100.00
46846;BME280;33947;46.804;134.252;2022-08-01T13:32:58;99948.31;;;23.10;100.00
46846;BME280;33947;46.804;134.252;2022-08-01T13:36:02;99945.16;;;23.05;100.00
46846;BME280;33947;46.804;134.252;2022-08-01T13:39:06;99949.44;;;23.08;100.00
46846;BME280;33947;46.804;134.252;2022-08-01T13:42:29;99947.16;;;23.03;100.00
46846;BME280;33947;46.804;134.252;2022-08-01T13:45:34;99949.41;;;22.98;100.00
46846;BME280;33947;46.804;134.252;2022-08-01T13:48:38;99957.81;;;22.95;100.00
46846;BME280;33947;46.804;134.252;2022-08-01T13:51:42;99956.94;;;22.94;100.00
46846;BME280;33947;46.804;134.252;2022-08-01T13:54:46;99954.53;;;22.91;100.00
46846;BME280;33947;46.804;134.252;2022-08-01T13:57:52;99959.22;;;22.89;100.00
46846;BME280;33947;46.804;134.252;2022-08-01T14:00:56;99960.34;;;22.87;100.00
46846;BME280;33947;46.804;134.252;2022-08-01T14:04:01;99955.63;;;22.89;100.00
46846;BME280;33947;46.804;134.252;2022-08-01T14:07:05;99965.47;;;22.90;100.00
46846;BME280;33947;46.804;134.252;2022-08-01T14:10:16;99965.63;;;22.88;100.00
46846;BME280;33947;46.804;134.252;2022-08-01T14:13:22;99958.81;;;22.94;100.00
46846;BME280;33947;46.804;134.252;2022-08-01T14:16:31;99956.13;;;22.94;100.00
46846;BME280;33947;46.804;134.252;2022-08-01T14:19:35;99957.66;;;22.96;100.00
46846;BME280;33947;46.804;134.252;2022-08-01T14:22:44;99953.53;;;22.92;100.00
46846;BME280;33947;46.804;134.252;2022-08-01T14:25:48;99965.91;;;22.85;100.00
46846;BME280;33947;46.804;134.252;2022-08-01T14:29:07;99971.97;;;22.77;100.00
46846;BME280;33947;46.804;134.252;2022-08-01T14:32:11;99967.22;;;22.69;100.00
46846;BME280;33947;46.804;134.252;2022-08-01T14:35:15;99953.41;;;22.63;100.00
46846;BME280;33947;46.804;134.252;2022-08-01T14:38:19;99964.75;;;22.57;100.00
46846;BME280;33947;46.804;134.252;2022-08-01T14:41:35;99959.75;;;22.52;100.00
46846;BME280;33947;46.804;134.252;2022-08-01T14:44:39;99952.72;;;22.49;100.00
46846;BME280;33947;46.804;134.252;2022-08-01T14:47:51;99950.81;;;22.61;100.00
46846;BME280;33947;46.804;134.252;2022-08-01T14:50:55;99944.56;;;22.61;100.00
46846;BME280;33947;46.804;134.252;2022-08-01T14:53:59;99954.66;;;22.59;100.00
46846;BME280;33947;46.804;134.252;2022-08-01T14:57:05;99960.56;;;22.52;100.00
46846;BME280;33947;46.804;134.252;2022-08-01T15:00:09;99968.56;;;22.54;100.00
46846;BME280;33947;46.804;134.252;2022-08-01T15:03:16;99973.16;;;22.42;100.00
46846;BME280;33947;46.804;134.252;2022-08-01T15:06:19;99978.56;;;22.42;100.00
46846;BME280;33947;46.804;134.252;2022-08-01T15:09:23;99973.53;;;22.49;100.00
46846;BME280;33947;46.804;134.252;2022-08-01T15:12:30;99973.16;;;22.42;100.00
46846;BME280;33947;46.804;134.252;2022-08-01T15:15:51;99988.94;;;22.37;100.00
46846;BME280;33947;46.804;134.252;2022-08-01T15:18:55;99990.31;;;22.31;100.00
46846;BME280;33947;46.804;134.252;2022-08-01T15:21:59;99988.34;;;22.33;100.00
46846;BME280;33947;46.804;134.252;2022-08-01T15:25:03;99999.66;;;22.38;100.00
46846;BME280;33947;46.804;134.252;2022-08-01T15:28:08;99999.78;;;22.37;100.00
46846;BME280;33947;46.804;134.252;2022-08-01T15:31:12;99999.78;;;22.37;100.00
46846;BME280;33947;46.804;134.252;2022-08-01T15:34:16;100002.84;;;22.32;100.00
46846;BME280;33947;46.804;134.252;2022-08-01T15:37:20;100004.13;;;22.28;100.00
46846;BME280;33947;46.804;134.252;2022-08-01T15:40:24;100012.94;;;22.30;100.00
46846;BME280;33947;46.804;134.252;2022-08-01T15:43:29;100012.94;;;22.30;100.00
46846;BME280;33947;46.804;134.252;2022-08-01T15:46:34;100028.59;;;22.26;100.00
46846;BME280;33947;46.804;134.252;2022-08-01T15:49:38;100030.44;;;22.26;100.00
46846;BME280;33947;46.804;134.252;2022-08-01T15:52:42;100028.00;;;22.23;100.00
46846;BME280;33947;46.804;134.252;2022-08-01T15:55:46;100034.28;;;22.23;100.00
46846;BME280;33947;46.804;134.252;2022-08-01T15:58:54;100039.16;;;22.30;100.00
46846;BME280;33947;46.804;134.252;2022-08-01T16:01:59;100041.47;;;22.34;100.00
46846;BME280;33947;46.804;134.252;2022-08-01T16:05:03;100039.16;;;22.30;100.00
46846;BME280;33947;46.804;134.252;2022-08-01T16:08:07;100043.66;;;22.19;100.00
46846;BME280;33947;46.804;134.252;2022-08-01T16:11:12;100046.63;;;22.16;100.00
46846;BME280;33947;46.804;134.252;2022-08-01T16:14:15;100049.06;;;22.08;100.00
46846;BME280;33947;46.804;134.252;2022-08-01T16:17:20;100050.06;;;22.07;100.00
46846;BME280;33947;46.804;134.252;2022-08-01T16:20:24;100045.16;;;22.01;100.00
46846;BME280;33947;46.804;134.252;2022-08-01T16:23:28;100037.22;;;21.99;100.00
46846;BME280;33947;46.804;134.252;2022-08-01T16:26:32;100054.88;;;22.03;100.00